createdAt,value
2023-01-28T00:00:57.169Z,2.20
2023-01-28T00:03:25.550Z,2.20
2023-01-28T00:05:55.172Z,2.30
2023-01-28T00:08:24.797Z,2.30
2023-01-28T00:10:55.223Z,2.20
2023-01-28T00:13:23.988Z,2.20
2023-01-28T00:15:57.388Z,2.20
2023-01-28T00:18:25.786Z,2.20
2023-01-28T00:21:00.471Z,2.20
2023-01-28T00:23:31.351Z,2.10
2023-01-28T00:26:00.463Z,2.10
2023-01-28T00:28:28.700Z,2.20
2023-01-28T00:30:57.102Z,2.20
2023-01-28T00:33:25.455Z,2.20
2023-01-28T00:36:00.604Z,2.20
2023-01-28T00:38:30.519Z,2.20
2023-01-28T00:41:08.532Z,2.20
2023-01-28T00:43:36.761Z,2.30
2023-01-28T00:46:05.500Z,2.30
2023-01-28T00:48:33.774Z,2.20
2023-01-28T00:51:02.165Z,2.30
2023-01-28T00:53:32.131Z,2.40
2023-01-28T00:56:00.587Z,2.40
2023-01-28T00:58:31.038Z,2.40
2023-01-28T01:01:07.587Z,2.40
2023-01-28T01:03:35.875Z,2.40
2023-01-28T01:06:04.130Z,2.30
2023-01-28T01:08:36.048Z,2.30
2023-01-28T01:11:05.225Z,2.30
2023-01-28T01:13:35.345Z,2.30
2023-01-28T01:16:05.592Z,2.30
2023-01-28T01:18:34.143Z,2.40
2023-01-28T01:21:03.043Z,2.40
2023-01-28T01:23:34.928Z,2.40
2023-01-28T01:26:03.418Z,2.30
2023-01-28T01:28:31.763Z,2.30
2023-01-28T01:31:04.105Z,2.30
2023-01-28T01:33:33.043Z,2.30
2023-01-28T01:36:01.499Z,2.30
2023-01-28T01:38:30.967Z,2.30
2023-01-28T01:41:01.156Z,2.30
2023-01-28T01:43:48.693Z,2.20
2023-01-28T01:46:21.189Z,2.30
2023-01-28T01:48:50.131Z,2.30
2023-01-28T01:51:22.853Z,2.30
2023-01-28T01:53:55.723Z,2.30
2023-01-28T01:56:29.579Z,2.30
2023-01-28T01:58:58.697Z,2.30
2023-01-28T02:01:31.257Z,2.30
2023-01-28T02:04:05.659Z,2.30
2023-01-28T02:06:35.887Z,2.30
2023-01-28T02:09:07.786Z,2.30
2023-01-28T02:11:39.975Z,2.40
2023-01-28T02:14:11.255Z,2.40
2023-01-28T02:16:41.008Z,2.40
2023-01-28T02:19:11.537Z,2.40
2023-01-28T02:22:15.503Z,2.40
2023-01-28T02:25:18.747Z,2.40
2023-01-28T02:28:02.614Z,2.30
2023-01-28T02:30:37.740Z,2.40
2023-01-28T02:33:09.632Z,2.40
2023-01-28T02:35:44.407Z,2.30
2023-01-28T02:38:16.417Z,2.40
2023-01-28T02:41:03.171Z,2.40
2023-01-28T02:43:35.229Z,2.40
2023-01-28T02:46:30.432Z,2.40
2023-01-28T02:48:59.281Z,2.40
2023-01-28T02:51:38.032Z,2.40
2023-01-28T02:54:12.224Z,2.40
2023-01-28T02:56:47.866Z,2.40
2023-01-28T02:59:34.238Z,2.40
2023-01-28T03:02:14.558Z,2.30
2023-01-28T03:04:49.111Z,2.30
2023-01-28T03:07:20.933Z,2.40
2023-01-28T03:09:51.301Z,2.40
2023-01-28T03:12:40.440Z,2.40
2023-01-28T03:15:32.004Z,2.30
2023-01-28T03:18:23.345Z,2.30
2023-01-28T03:21:18.077Z,2.40
2023-01-28T03:24:08.729Z,2.40
2023-01-28T03:27:01.837Z,2.30
2023-01-28T03:29:51.840Z,2.40
2023-01-28T03:32:42.259Z,2.30
2023-01-28T03:35:29.577Z,2.30
2023-01-28T03:38:00.306Z,2.40
2023-01-28T03:40:29.873Z,2.30
2023-01-28T03:42:58.063Z,2.30
2023-01-28T03:45:33.750Z,2.40
2023-01-28T03:48:04.889Z,2.30
2023-01-28T03:50:33.148Z,2.40
2023-01-28T03:53:13.546Z,2.30
2023-01-28T03:55:53.781Z,2.30
2023-01-28T03:58:23.103Z,2.30
2023-01-28T04:00:52.403Z,2.30
2023-01-28T04:03:23.149Z,2.30
2023-01-28T04:06:01.582Z,2.30
2023-01-28T04:08:49.054Z,2.30
2023-01-28T04:11:35.767Z,2.30
2023-01-28T04:14:06.528Z,2.30
2023-01-28T04:16:48.491Z,2.30
2023-01-28T04:19:18.767Z,2.30
2023-01-28T04:21:47.611Z,2.30
2023-01-28T04:24:25.603Z,2.30
2023-01-28T04:26:56.165Z,2.30
2023-01-28T04:29:24.568Z,2.40
2023-01-28T04:31:54.543Z,2.40
2023-01-28T04:34:38.589Z,2.30
2023-01-28T04:37:29.706Z,2.30
2023-01-28T04:40:18.030Z,2.30
2023-01-28T04:43:12.096Z,2.30
2023-01-28T04:45:55.661Z,2.30
2023-01-28T04:48:26.715Z,2.30
2023-01-28T04:51:17.857Z,2.30
2023-01-28T04:53:59.543Z,2.40
2023-01-28T04:56:31.203Z,2.30
2023-01-28T04:58:59.437Z,2.30
2023-01-28T05:01:27.774Z,2.30
2023-01-28T05:03:57.135Z,2.30
2023-01-28T05:06:29.491Z,2.40
2023-01-28T05:09:01.058Z,2.30
2023-01-28T05:11:30.947Z,2.30
2023-01-28T05:14:02.842Z,2.40
2023-01-28T05:16:39.274Z,2.40
2023-01-28T05:19:08.105Z,2.40
2023-01-28T05:21:42.160Z,2.40
2023-01-28T05:24:19.397Z,2.40
2023-01-28T05:26:47.658Z,2.40
2023-01-28T05:29:15.871Z,2.40
2023-01-28T05:31:46.179Z,2.40
2023-01-28T05:34:15.542Z,2.30
2023-01-28T05:36:45.823Z,2.30
2023-01-28T05:39:32.464Z,2.40
2023-01-28T05:42:00.937Z,2.40
2023-01-28T05:44:29.829Z,2.30
2023-01-28T05:47:10.300Z,2.40
2023-01-28T05:49:58.710Z,2.30
2023-01-28T05:52:46.366Z,2.30
2023-01-28T05:55:22.875Z,2.40
2023-01-28T05:57:52.039Z,2.40
2023-01-28T06:00:23.510Z,2.40
2023-01-28T06:02:53.125Z,2.40
2023-01-28T06:05:22.252Z,2.30
2023-01-28T06:07:51.871Z,2.30
2023-01-28T06:10:20.051Z,2.30
2023-01-28T06:12:48.777Z,2.30
2023-01-28T06:15:35.857Z,2.30
2023-01-28T06:18:13.936Z,2.40
2023-01-28T06:20:42.415Z,2.30
2023-01-28T06:23:12.687Z,2.30
2023-01-28T06:25:40.863Z,2.30
2023-01-28T06:28:12.621Z,2.20
2023-01-28T06:30:40.859Z,2.20
2023-01-28T06:33:09.083Z,2.20
2023-01-28T06:35:37.303Z,2.30
2023-01-28T06:38:05.634Z,2.20
2023-01-28T06:40:35.164Z,2.30
2023-01-28T06:43:03.356Z,2.20
2023-01-28T06:45:32.068Z,2.30
2023-01-28T06:48:00.631Z,2.30
2023-01-28T06:50:28.803Z,2.20
2023-01-28T06:52:57.046Z,2.30
2023-01-28T06:55:25.179Z,2.30
2023-01-28T06:57:54.753Z,2.30
2023-01-28T07:00:23.413Z,2.30
2023-01-28T07:02:51.687Z,2.30
2023-01-28T07:05:19.874Z,2.40
2023-01-28T07:07:48.048Z,2.30
2023-01-28T07:10:16.832Z,2.30
2023-01-28T07:12:45.956Z,2.30
2023-01-28T07:15:16.183Z,2.30
2023-01-28T07:17:44.625Z,2.30
2023-01-28T07:20:16.038Z,2.30
2023-01-28T07:22:47.882Z,2.30
2023-01-28T07:25:16.637Z,2.30
2023-01-28T07:27:54.345Z,2.40
2023-01-28T07:30:24.361Z,2.40
2023-01-28T07:32:58.955Z,2.40
2023-01-28T07:35:27.994Z,2.40
2023-01-28T07:37:57.431Z,2.40
2023-01-28T07:40:28.643Z,2.40
2023-01-28T07:42:56.968Z,2.50
2023-01-28T07:45:34.581Z,2.40
2023-01-28T07:48:06.886Z,2.40
2023-01-28T07:50:36.955Z,2.40
2023-01-28T07:53:06.338Z,2.40
2023-01-28T07:55:36.126Z,2.50
2023-01-28T07:58:10.688Z,2.40
2023-01-28T08:00:40.690Z,2.50
2023-01-28T08:03:15.995Z,2.50
2023-01-28T08:05:47.317Z,2.50
2023-01-28T08:08:15.931Z,2.50
2023-01-28T08:10:45.027Z,2.40
2023-01-28T08:13:17.114Z,2.50
2023-01-28T08:15:49.710Z,2.50
2023-01-28T08:18:18.482Z,2.50
2023-01-28T08:20:49.620Z,2.50
2023-01-28T08:23:19.640Z,2.50
2023-01-28T08:25:51.109Z,2.50
2023-01-28T08:28:26.729Z,2.50
2023-01-28T08:30:56.399Z,2.40
2023-01-28T08:33:24.641Z,2.40
2023-01-28T08:35:52.873Z,2.50
2023-01-28T08:38:21.127Z,2.50
2023-01-28T08:40:52.309Z,2.50
2023-01-28T08:43:20.571Z,2.50
2023-01-28T08:45:50.814Z,2.40
2023-01-28T08:48:21.779Z,2.40
2023-01-28T08:50:50.914Z,2.40
2023-01-28T08:53:23.552Z,2.50
2023-01-28T08:55:54.101Z,2.40
2023-01-28T08:58:22.543Z,2.40
2023-01-28T09:00:54.298Z,2.40
2023-01-28T09:03:23.890Z,2.50
2023-01-28T09:05:52.170Z,2.50
2023-01-28T09:08:20.342Z,2.50
2023-01-28T09:10:48.500Z,2.60
2023-01-28T09:13:19.629Z,2.60
2023-01-28T09:15:49.873Z,2.60
2023-01-28T09:18:20.990Z,2.70
2023-01-28T09:20:50.529Z,2.60
2023-01-28T09:23:20.546Z,2.60
2023-01-28T09:25:48.690Z,2.50
2023-01-28T09:28:16.912Z,2.50
2023-01-28T09:30:45.122Z,2.50
2023-01-28T09:33:14.519Z,2.50
2023-01-28T09:35:42.731Z,2.50
2023-01-28T09:38:12.298Z,2.50
2023-01-28T09:40:43.844Z,2.60
2023-01-28T09:43:29.227Z,2.60
2023-01-28T09:45:59.662Z,2.60
2023-01-28T09:48:34.107Z,2.60
2023-01-28T09:51:02.824Z,2.60
2023-01-28T09:53:36.458Z,2.60
2023-01-28T09:56:07.320Z,2.70
2023-01-28T09:58:35.595Z,2.60
2023-01-28T10:01:15.876Z,2.60
2023-01-28T10:03:55.569Z,2.70
2023-01-28T10:06:31.608Z,2.70
2023-01-28T10:09:32.871Z,2.70
2023-01-28T10:12:33.116Z,2.70
2023-01-28T10:15:20.247Z,2.70
2023-01-28T10:17:51.081Z,2.70
2023-01-28T10:20:27.127Z,2.70
2023-01-28T10:22:59.586Z,2.60
2023-01-28T10:25:32.313Z,2.60
2023-01-28T10:28:03.046Z,2.60
2023-01-28T10:30:34.871Z,2.60
2023-01-28T10:33:06.027Z,2.70
2023-01-28T10:35:40.787Z,2.70
2023-01-28T10:38:14.517Z,2.70
2023-01-28T10:40:48.124Z,2.70
2023-01-28T10:43:19.102Z,2.70
2023-01-28T10:45:56.530Z,2.70
2023-01-28T10:48:27.398Z,2.60
2023-01-28T10:50:59.621Z,2.70
2023-01-28T10:53:37.138Z,2.70
2023-01-28T10:56:09.981Z,2.70
2023-01-28T10:58:49.067Z,2.70
2023-01-28T11:01:17.388Z,2.80
2023-01-28T11:03:56.459Z,2.80
2023-01-28T11:06:27.349Z,2.80
2023-01-28T11:08:55.581Z,2.80
2023-01-28T11:11:29.894Z,2.80
2023-01-28T11:13:58.735Z,2.80
2023-01-28T11:16:27.831Z,2.80
2023-01-28T11:19:00.979Z,2.80
2023-01-28T11:21:31.437Z,2.70
2023-01-28T11:24:02.608Z,2.80
2023-01-28T11:26:34.901Z,2.70
2023-01-28T11:29:03.284Z,2.70
2023-01-28T11:31:43.004Z,2.80
2023-01-28T11:34:18.368Z,2.80
2023-01-28T11:36:52.994Z,2.80
2023-01-28T11:39:25.968Z,2.80
2023-01-28T11:41:56.272Z,2.80
2023-01-28T11:44:26.825Z,2.80
2023-01-28T11:47:11.364Z,2.80
2023-01-28T11:49:52.094Z,2.80
2023-01-28T11:52:32.045Z,2.80
2023-01-28T11:55:22.784Z,2.80
2023-01-28T11:58:01.974Z,2.80
2023-01-28T12:00:39.838Z,2.80
2023-01-28T12:03:41.578Z,2.90
2023-01-28T12:06:33.696Z,2.80
2023-01-28T12:09:12.975Z,2.70
2023-01-28T12:12:11.191Z,2.70
2023-01-28T12:14:59.912Z,2.70
2023-01-28T12:17:37.567Z,2.80
2023-01-28T12:20:18.107Z,2.70
2023-01-28T12:23:06.605Z,2.70
2023-01-28T12:25:51.437Z,2.80
2023-01-28T12:28:30.834Z,2.80
2023-01-28T12:31:18.143Z,2.80
2023-01-28T12:34:03.766Z,2.80
2023-01-28T12:36:44.932Z,2.80
2023-01-28T12:39:25.354Z,2.80
2023-01-28T12:42:07.386Z,2.80
2023-01-28T12:44:39.383Z,2.70
2023-01-28T12:47:12.886Z,2.70
2023-01-28T12:49:48.024Z,2.70
2023-01-28T12:52:21.987Z,2.70
2023-01-28T12:54:59.586Z,2.70
2023-01-28T12:57:30.666Z,2.80
2023-01-28T13:00:09.688Z,2.70
2023-01-28T13:02:47.145Z,2.70
2023-01-28T13:05:18.591Z,2.80
2023-01-28T13:07:53.290Z,2.70
2023-01-28T13:10:28.925Z,2.70
2023-01-28T13:12:58.306Z,2.70
2023-01-28T13:15:27.098Z,2.70
2023-01-28T13:17:58.920Z,2.70
2023-01-28T13:20:37.761Z,2.70
2023-01-28T13:23:22.902Z,2.70
2023-01-28T13:25:52.745Z,2.80
2023-01-28T13:28:30.138Z,2.80
2023-01-28T13:31:06.943Z,2.80
2023-01-28T13:33:39.295Z,2.70
2023-01-28T13:36:22.362Z,2.70
2023-01-28T13:39:00.906Z,2.70
2023-01-28T13:41:39.544Z,2.80
2023-01-28T13:44:20.071Z,2.70
2023-01-28T13:46:48.654Z,2.70
2023-01-28T13:49:23.757Z,2.70
2023-01-28T13:52:00.972Z,2.70
2023-01-28T13:54:33.239Z,2.70
2023-01-28T13:57:33.909Z,2.60
2023-01-28T14:00:13.268Z,2.70
2023-01-28T14:03:16.778Z,2.70
2023-01-28T14:06:14.114Z,2.60
2023-01-28T14:09:09.928Z,2.60
2023-01-28T14:12:10.508Z,2.60
2023-01-28T14:15:23.843Z,2.60
2023-01-28T14:17:54.407Z,2.60
2023-01-28T14:20:27.576Z,2.60
2023-01-28T14:23:02.270Z,2.60
2023-01-28T14:25:37.809Z,2.60
2023-01-28T14:28:08.260Z,2.60
2023-01-28T14:30:48.872Z,2.60
2023-01-28T14:33:18.490Z,2.60
2023-01-28T14:35:49.561Z,2.60
2023-01-28T14:38:21.541Z,2.60
2023-01-28T14:40:52.552Z,2.60
2023-01-28T14:43:24.881Z,2.60
2023-01-28T14:46:08.321Z,2.60
2023-01-28T14:48:43.463Z,2.60
2023-01-28T14:51:38.602Z,2.50
2023-01-28T14:54:32.156Z,2.50
2023-01-28T14:57:15.576Z,2.50
2023-01-28T14:59:47.274Z,2.50
2023-01-28T15:02:20.093Z,2.40
2023-01-28T15:04:48.688Z,2.50
2023-01-28T15:07:21.341Z,2.50
2023-01-28T15:10:02.358Z,2.40
2023-01-28T15:12:34.025Z,2.40
2023-01-28T15:15:10.487Z,2.40
2023-01-28T15:17:38.995Z,2.40
2023-01-28T15:20:09.535Z,2.40
2023-01-28T15:27:43.850Z,2.40
2023-01-28T15:42:54.698Z,2.40
2023-01-28T17:54:36.586Z,2.10
2023-01-28T17:57:06.211Z,2.10
2023-01-28T17:59:34.443Z,2.10
2023-01-28T18:02:02.838Z,2.10
2023-01-28T18:04:38.144Z,2.20
2023-01-28T18:07:10.836Z,2.20
2023-01-28T18:09:39.789Z,2.20
2023-01-28T18:12:13.721Z,2.20
2023-01-28T18:14:42.272Z,2.10
2023-01-28T18:17:13.109Z,2.10
2023-01-28T18:19:41.346Z,2.10
2023-01-28T18:22:12.050Z,2.00
2023-01-28T18:24:40.266Z,2.00
2023-01-28T18:27:12.318Z,2.10
2023-01-28T18:29:40.517Z,2.10
2023-01-28T18:32:08.703Z,2.10
2023-01-28T18:34:39.363Z,2.10
2023-01-28T18:37:08.582Z,2.10
2023-01-28T18:39:37.944Z,2.20
2023-01-28T18:42:07.289Z,2.20
2023-01-28T18:44:37.538Z,2.20
2023-01-28T18:47:05.788Z,2.20
2023-01-28T18:49:34.086Z,2.10
2023-01-28T18:52:02.381Z,2.10
2023-01-28T18:54:30.601Z,2.10
2023-01-28T18:57:03.981Z,2.10
2023-01-28T18:59:32.153Z,2.10
2023-01-28T19:02:02.591Z,2.10
2023-01-28T19:04:30.932Z,2.20
2023-01-28T19:06:59.352Z,2.20
2023-01-28T19:09:27.653Z,2.20
2023-01-28T19:11:55.878Z,2.10
2023-01-28T19:14:27.064Z,2.10
2023-01-28T19:16:55.263Z,2.10
2023-01-28T19:19:25.316Z,2.10
2023-01-28T19:21:53.739Z,2.10
2023-01-28T19:24:24.215Z,2.10
2023-01-28T19:26:52.478Z,2.10
2023-01-28T19:29:20.730Z,2.10
2023-01-28T19:31:49.665Z,2.00
2023-01-28T19:34:18.087Z,2.00
2023-01-28T19:36:48.045Z,2.00
2023-01-28T19:39:16.779Z,2.00
2023-01-28T19:41:45.729Z,2.00
2023-01-28T19:44:14.107Z,2.00
2023-01-28T19:46:42.748Z,2.00
2023-01-28T19:49:13.078Z,2.10
2023-01-28T19:51:42.648Z,2.00
2023-01-28T19:54:14.705Z,2.00
2023-01-28T19:56:43.002Z,2.00
2023-01-28T19:59:11.325Z,1.90
2023-01-28T20:01:42.419Z,1.90
2023-01-28T20:04:10.725Z,1.90
2023-01-28T20:06:41.905Z,1.90
2023-01-28T20:09:19.907Z,1.90
2023-01-28T20:11:48.109Z,1.90
2023-01-28T20:14:18.063Z,1.90
2023-01-28T20:16:49.036Z,2.00
2023-01-28T20:19:19.296Z,2.00
2023-01-28T20:21:48.173Z,1.90
2023-01-28T20:24:17.759Z,2.00
2023-01-28T20:26:48.277Z,1.90
2023-01-28T20:29:20.689Z,1.90
2023-01-28T20:32:01.216Z,1.90
2023-01-28T20:34:37.623Z,1.90
2023-01-28T20:37:10.150Z,1.90
2023-01-28T20:39:39.747Z,1.90
2023-01-28T20:42:10.199Z,1.90
2023-01-28T20:44:38.386Z,1.90
2023-01-28T20:47:06.689Z,2.00
2023-01-28T20:49:34.965Z,1.90
2023-01-28T20:52:04.405Z,1.80
2023-01-28T20:54:36.029Z,1.80
2023-01-28T20:57:05.689Z,1.80
2023-01-28T20:59:34.042Z,1.70
2023-01-28T21:02:02.196Z,1.80
2023-01-28T21:04:30.386Z,1.70
2023-01-28T21:07:01.129Z,1.70
2023-01-28T21:09:29.452Z,1.70
2023-01-28T21:11:57.713Z,1.70
2023-01-28T21:14:29.838Z,1.70
2023-01-28T21:16:58.034Z,1.70
2023-01-28T21:19:26.323Z,1.70
2023-01-28T21:21:54.793Z,1.70
2023-01-28T21:24:23.115Z,1.70
2023-01-28T21:26:51.324Z,1.60
2023-01-28T21:29:19.852Z,1.70
2023-01-28T21:31:52.440Z,1.70
2023-01-28T21:34:20.732Z,1.70
2023-01-28T21:36:48.899Z,1.80
2023-01-28T21:39:17.088Z,1.80
2023-01-28T21:41:45.357Z,1.70
2023-01-28T21:44:13.732Z,1.70
2023-01-28T21:46:44.241Z,1.80
2023-01-28T21:49:13.835Z,1.70
2023-01-28T21:51:46.229Z,1.70
2023-01-28T21:54:16.592Z,1.50
2023-01-28T21:56:45.818Z,1.60
2023-01-28T21:59:30.277Z,1.60
2023-01-28T22:02:00.220Z,1.50
2023-01-28T22:04:33.709Z,1.60
2023-01-28T22:07:03.127Z,1.50
2023-01-28T22:09:32.108Z,1.70
2023-01-28T22:12:00.668Z,1.60
2023-01-28T22:14:28.858Z,1.50
2023-01-28T22:16:57.110Z,1.50
2023-01-28T22:19:25.437Z,1.40
2023-01-28T22:21:55.216Z,1.50
2023-01-28T22:24:26.344Z,1.40
2023-01-28T22:26:55.371Z,1.40
2023-01-28T22:29:25.142Z,1.50
2023-01-28T22:31:54.661Z,1.50
2023-01-28T22:34:23.487Z,1.50
2023-01-28T22:36:54.005Z,1.40
2023-01-28T22:39:25.277Z,1.40
2023-01-28T22:41:53.635Z,1.40
2023-01-28T22:44:21.885Z,1.40
2023-01-28T22:46:50.166Z,1.40
2023-01-28T22:49:18.332Z,1.40
2023-01-28T22:51:46.610Z,1.40
2023-01-28T22:54:16.165Z,1.30
2023-01-28T22:56:44.420Z,1.30
2023-01-28T22:59:12.931Z,1.40
2023-01-28T23:01:41.381Z,1.30
2023-01-28T23:04:09.875Z,1.30
2023-01-28T23:06:38.314Z,1.30
2023-01-28T23:09:06.621Z,1.30
2023-01-28T23:11:36.301Z,1.30
2023-01-28T23:14:22.605Z,1.20
2023-01-28T23:17:14.060Z,1.20
2023-01-28T23:19:59.850Z,1.30
2023-01-28T23:22:48.992Z,1.20
2023-01-28T23:25:18.424Z,1.20
2023-01-28T23:27:48.055Z,1.20
2023-01-28T23:30:16.736Z,1.20
2023-01-28T23:32:48.538Z,1.20
2023-01-28T23:35:19.048Z,1.20
2023-01-28T23:37:49.925Z,1.20
2023-01-28T23:40:20.957Z,1.20
2023-01-28T23:42:52.959Z,1.20
2023-01-28T23:45:21.914Z,1.20
2023-01-28T23:47:50.391Z,1.30
2023-01-28T23:50:19.236Z,1.20
2023-01-28T23:52:49.932Z,1.20
2023-01-28T23:55:18.330Z,1.10
2023-01-28T23:57:46.596Z,1.20
